Time;durP1;ratioP1;P1;durP2;ratioP2;P2;SDS_P1;SDS_P2;PMS_P1;PMS_P2;Temp;Humidity;BMP_temperature;BMP_pressure;BME280_temperature;BME280_humidity;BME280_pressure;Samples;Min_cycle;Max_cycle;Signal;HPM_P1;HPM_P2
2022/10/25 04:22:55;;;;;;;1.90;0.90;;;;;;;11.54;100.00;100369.50;5092266;28;20331;-65
2022/10/25 04:25:22;;;;;;;1.77;1.00;;;;;;;11.56;100.00;100367.50;5091226;28;20060;-66
2022/10/25 04:27:48;;;;;;;2.50;1.10;;;;;;;11.53;100.00;100367.84;5090585;28;20126;-66
2022/10/25 04:30:13;;;;;;;0.88;0.65;;;;;;;11.50;100.00;100374.38;5089897;28;20961;-66
2022/10/25 04:32:39;;;;;;;1.67;1.30;;;;;;;11.55;100.00;100374.69;5090903;28;20058;-66
2022/10/25 04:35:04;;;;;;;1.10;0.95;;;;;;;11.55;100.00;100377.34;5089779;28;20040;-67
2022/10/25 04:37:30;;;;;;;0.93;0.90;;;;;;;11.56;100.00;100379.00;5088681;28;20117;-67
2022/10/25 04:39:55;;;;;;;1.10;0.80;;;;;;;11.57;100.00;100380.66;5088755;28;20044;-68
2022/10/25 04:42:21;;;;;;;0.90;0.75;;;;;;;11.56;100.00;100381.69;5088611;28;20040;-67
2022/10/25 04:44:46;;;;;;;0.90;0.90;;;;;;;11.58;100.00;100374.31;5087491;28;20036;-66
2022/10/25 04:47:12;;;;;;;1.40;1.00;;;;;;;11.55;100.00;100366.69;5088563;28;20510;-68
2022/10/25 04:49:38;;;;;;;2.17;1.27;;;;;;;11.65;100.00;100385.94;5088630;28;20127;-68
2022/10/25 04:52:03;;;;;;;1.48;1.17;;;;;;;11.69;100.00;100381.09;5088262;28;20132;-68
2022/10/25 04:54:29;;;;;;;2.35;1.08;;;;;;;11.72;100.00;100372.72;5088641;28;20044;-68
2022/10/25 04:56:54;;;;;;;3.40;1.02;;;;;;;11.72;100.00;100377.22;5088493;28;20033;-67
2022/10/25 04:59:19;;;;;;;3.42;1.05;;;;;;;11.76;100.00;100378.56;5088463;28;20347;-67
2022/10/25 05:01:45;;;;;;;1.27;0.73;;;;;;;11.75;100.00;100374.22;5086846;28;20041;-67
2022/10/25 05:04:10;;;;;;;1.65;1.00;;;;;;;11.78;100.00;100377.34;5088262;28;20170;-67
2022/10/25 05:06:36;;;;;;;1.10;0.75;;;;;;;11.78;100.00;100379.19;5088272;28;20075;-67
2022/10/25 05:09:02;;;;;;;2.05;1.13;;;;;;;11.77;100.00;100374.88;5088321;28;20147;-67
2022/10/25 05:11:28;;;;;;;4.35;1.55;;;;;;;11.82;100.00;100385.88;5087881;28;20123;-67
2022/10/25 05:13:53;;;;;;;1.90;1.10;;;;;;;11.82;100.00;100372.53;5088017;28;20124;-66
2022/10/25 05:16:23;;;;;;;5.15;1.95;;;;;;;11.85;100.00;100372.16;5088058;28;20043;-66
2022/10/25 05:18:49;;;;;;;2.70;2.00;;;;;;;11.88;100.00;100375.31;5088008;28;20444;-66
2022/10/25 05:21:16;;;;;;;3.22;1.13;;;;;;;11.94;100.00;100379.94;5087610;28;20050;-66
2022/10/25 05:23:41;;;;;;;3.00;1.20;;;;;;;12.01;100.00;100380.06;5087959;28;20037;-66
2022/10/25 05:26:13;;;;;;;2.13;1.30;;;;;;;12.06;100.00;100382.16;5087745;28;20059;-66
2022/10/25 05:28:40;;;;;;;1.73;1.35;;;;;;;12.07;100.00;100383.84;5087946;28;20036;-66
2022/10/25 05:31:14;;;;;;;1.77;1.13;;;;;;;12.14;100.00;100395.47;5087506;28;20124;-66
2022/10/25 05:33:43;;;;;;;3.70;1.40;;;;;;;12.16;100.00;100396.94;5077692;28;20037;-67
2022/10/25 05:36:10;;;;;;;3.15;1.13;;;;;;;12.16;100.00;100402.28;5074192;28;20524;-67
2022/10/25 05:38:35;;;;;;;2.83;1.77;;;;;;;12.16;100.00;100399.63;5074263;28;20552;-66
2022/10/25 05:41:01;;;;;;;4.97;1.77;;;;;;;12.15;100.00;100387.28;5073896;28;20233;-66
2022/10/25 05:43:26;;;;;;;1.98;1.42;;;;;;;12.17;100.00;100390.59;5074249;28;20032;-66
2022/10/25 05:46:13;;;;;;;3.10;1.85;;;;;;;12.20;100.00;100397.44;5074032;28;20064;-65
2022/10/25 05:48:39;;;;;;;4.03;1.98;;;;;;;12.23;100.00;100399.72;5074079;28;20082;-65
2022/10/25 05:51:14;;;;;;;1.95;1.30;;;;;;;12.27;100.00;100413.56;5073453;28;20110;-66
2022/10/25 05:53:47;;;;;;;4.13;1.15;;;;;;;12.28;100.00;100416.06;5074010;28;20054;-68
2022/10/25 05:56:14;;;;;;;1.58;1.10;;;;;;;12.31;100.00;100413.00;5073971;28;20549;-67
2022/10/25 05:58:40;;;;;;;1.98;1.55;;;;;;;12.33;100.00;100416.34;5073968;28;20045;-67
2022/10/25 06:01:09;;;;;;;2.25;1.02;;;;;;;12.35;100.00;100418.81;5073455;28;20040;-67
2022/10/25 06:03:35;;;;;;;1.35;1.25;;;;;;;12.34;100.00;100418.00;5073728;28;20036;-67
2022/10/25 06:06:07;;;;;;;5.28;2.00;;;;;;;12.37;100.00;100420.28;5073812;28;20062;-67
2022/10/25 06:08:33;;;;;;;1.77;0.75;;;;;;;12.38;100.00;100413.94;5073659;28;20029;-67
2022/10/25 06:11:04;;;;;;;1.88;1.10;;;;;;;12.42;100.00;100431.28;5073281;28;20031;-67
2022/10/25 06:13:30;;;;;;;2.15;1.33;;;;;;;12.43;100.00;100427.59;5073732;28;20078;-66
2022/10/25 06:15:56;;;;;;;3.50;1.10;;;;;;;12.46;100.00;100434.44;5073545;28;20476;-67
2022/10/25 06:18:22;;;;;;;2.33;1.55;;;;;;;12.49;100.00;100434.88;5073518;28;20029;-57
2022/10/25 06:20:47;;;;;;;1.23;0.98;;;;;;;12.50;100.00;100433.88;5073510;28;20705;-56
2022/10/25 06:23:13;;;;;;;1.45;0.85;;;;;;;12.54;100.00;100429.00;5070729;28;20037;-57
2022/10/25 06:25:38;;;;;;;3.00;1.15;;;;;;;12.57;100.00;100443.84;5070389;28;20040;-63
2022/10/25 06:28:03;;;;;;;1.58;0.90;;;;;;;12.57;100.00;100449.19;5073567;28;20378;-63
2022/10/25 06:30:31;;;;;;;1.20;0.80;;;;;;;12.57;100.00;100447.34;5073201;28;20044;-64
2022/10/25 06:32:56;;;;;;;2.40;1.20;;;;;;;12.58;100.00;100453.50;5073210;28;20055;-64
2022/10/25 06:35:22;;;;;;;2.15;1.27;;;;;;;12.56;100.00;100455.53;5073310;28;20115;-63
2022/10/25 06:37:47;;;;;;;1.30;1.10;;;;;;;12.52;100.00;100457.75;5073235;28;20570;-62
2022/10/25 06:40:13;;;;;;;1.27;1.10;;;;;;;12.51;100.00;100450.72;5072713;28;20557;-63
2022/10/25 06:42:38;;;;;;;1.92;1.08;;;;;;;12.52;100.00;100460.44;5073096;28;20044;-62
2022/10/25 06:45:04;;;;;;;4.22;1.42;;;;;;;12.55;100.00;100465.41;5071994;28;20449;-64
2022/10/25 06:47:30;;;;;;;1.10;0.80;;;;;;;12.57;100.00;100470.56;5072849;28;20397;-64
2022/10/25 06:49:55;;;;;;;1.63;1.10;;;;;;;12.59;100.00;100468.56;5072932;28;20068;-62
2022/10/25 06:52:20;;;;;;;4.18;1.08;;;;;;;12.60;100.00;100470.22;5072690;28;20032;-62
2022/10/25 06:54:46;;;;;;;2.00;0.65;;;;;;;12.63;100.00;100470.66;5072917;28;20051;-64
2022/10/25 06:57:11;;;;;;;1.48;1.08;;;;;;;12.57;100.00;100466.03;5072678;28;20034;-63
2022/10/25 06:59:36;;;;;;;2.15;0.95;;;;;;;12.61;100.00;100471.88;5072814;28;20501;-64
2022/10/25 07:02:02;;;;;;;2.42;1.58;;;;;;;12.61;100.00;100472.69;5072377;28;20037;-62
2022/10/25 07:04:31;;;;;;;2.53;1.35;;;;;;;12.62;100.00;100474.34;5072723;28;20481;-63
2022/10/25 07:06:57;;;;;;;1.52;1.05;;;;;;;12.64;100.00;100477.66;5072719;28;20150;-64
2022/10/25 07:09:24;;;;;;;1.38;1.27;;;;;;;12.67;100.00;100469.31;5072867;28;20064;-64
2022/10/25 07:11:49;;;;;;;2.03;1.02;;;;;;;12.68;100.00;100470.97;5072218;28;20594;-63
2022/10/25 07:14:15;;;;;;;1.48;1.00;;;;;;;12.73;100.00;100465.91;5072551;28;20115;-62
2022/10/25 07:16:40;;;;;;;2.88;1.25;;;;;;;12.78;100.00;100473.38;5072326;28;20043;-63
2022/10/25 07:19:06;;;;;;;1.33;0.85;;;;;;;12.83;100.00;100479.00;5072436;28;20116;-64
2022/10/25 07:21:32;;;;;;;2.22;0.95;;;;;;;12.87;100.00;100485.66;5072047;28;20059;-64
2022/10/25 07:23:57;;;;;;;1.10;1.00;;;;;;;12.90;100.00;100487.13;5072294;28;20386;-63
2022/10/25 07:26:28;;;;;;;1.60;1.13;;;;;;;12.92;100.00;100490.47;5072257;28;20042;-64
2022/10/25 07:28:56;;;;;;;1.17;0.98;;;;;;;12.99;100.00;100481.50;5072210;28;20036;-63
2022/10/25 07:31:24;;;;;;;3.25;1.10;;;;;;;13.03;100.00;100484.63;5071826;28;20032;-63
2022/10/25 07:33:52;;;;;;;2.15;0.93;;;;;;;13.05;100.00;100479.97;5072310;28;20028;-64
2022/10/25 07:36:18;;;;;;;;;;;;;;;13.09;100.00;100486.56;5072516;28;20097;-62
2022/10/25 07:38:43;;;;;;;3.25;0.98;;;;;;;13.14;100.00;100486.88;5072142;28;20391;-62
2022/10/25 07:41:10;;;;;;;1.63;0.82;;;;;;;13.18;100.00;100487.34;5071722;28;20066;-64
2022/10/25 07:43:36;;;;;;;1.88;0.90;;;;;;;13.22;100.00;100483.28;5071921;28;20105;-64
2022/10/25 07:46:02;;;;;;;3.58;1.10;;;;;;;13.27;100.00;100492.44;5071950;28;20107;-64
2022/10/25 07:48:27;;;;;;;2.80;0.90;;;;;;;13.33;100.00;100490.03;5071980;28;20039;-62
2022/10/25 07:50:53;;;;;;;2.85;1.13;;;;;;;13.38;100.00;100496.50;5070361;28;20397;-63
2022/10/25 07:53:18;;;;;;;1.88;0.85;;;;;;;13.42;100.00;100495.09;5072035;28;20111;-64
2022/10/25 07:55:53;;;;;;;2.58;1.00;;;;;;;13.54;100.00;100498.13;5071612;28;20063;-64
2022/10/25 07:58:18;;;;;;;1.33;1.00;;;;;;;13.57;100.00;100498.59;5071826;28;20028;-63
2022/10/25 08:00:44;;;;;;;2.05;0.88;;;;;;;13.60;100.00;100491.22;5071596;28;20399;-64
2022/10/25 08:03:09;;;;;;;1.45;1.00;;;;;;;13.69;100.00;100495.44;5071916;28;20037;-65
2022/10/25 08:05:35;;;;;;;2.20;1.02;;;;;;;13.75;100.00;100498.19;5071806;28;20036;-64
2022/10/25 08:08:00;;;;;;;3.72;0.80;;;;;;;13.84;100.00;100496.25;5071765;28;20041;-66
2022/10/25 08:10:25;;;;;;;0.77;0.77;;;;;;;13.89;100.00;100495.66;5071496;28;20047;-66
2022/10/25 08:12:53;;;;;;;1.85;0.68;;;;;;;14.00;100.00;100496.00;5071657;28;20033;-66
2022/10/25 08:15:19;;;;;;;1.20;0.90;;;;;;;14.17;100.00;100507.31;5071581;28;20040;-64
2022/10/25 08:17:44;;;;;;;0.73;0.73;;;;;;;14.19;100.00;100504.44;5071809;28;20120;-66
2022/10/25 08:20:10;;;;;;;1.17;0.60;;;;;;;14.21;100.00;100494.34;5071472;28;20044;-66
2022/10/25 08:22:35;;;;;;;0.80;0.80;;;;;;;14.39;100.00;100500.94;5071411;28;20064;-65
2022/10/25 08:25:03;;;;;;;1.20;0.80;;;;;;;14.46;100.00;100514.44;5071579;28;20040;-66
2022/10/25 08:27:28;;;;;;;;;;;;;;;14.57;100.00;100513.91;5071910;28;20501;-65
2022/10/25 08:29:53;;;;;;;3.03;0.80;;;;;;;14.68;100.00;100515.25;5071400;28;19977;-65
2022/10/25 08:32:19;;;;;;;1.23;0.95;;;;;;;14.74;100.00;100509.13;5071261;28;20048;-66
2022/10/25 08:34:44;;;;;;;0.65;0.50;;;;;;;14.80;100.00;100508.34;5071596;28;20037;-66
2022/10/25 08:37:11;;;;;;;1.02;0.75;;;;;;;14.95;100.00;100504.75;5071397;28;20528;-66
2022/10/25 08:39:37;;;;;;;0.88;0.70;;;;;;;15.03;99.53;100509.94;5071465;28;20037;-66
2022/10/25 08:42:03;;;;;;;5.38;0.98;;;;;;;15.11;100.00;100509.78;5071050;28;20039;-65
2022/10/25 08:44:34;;;;;;;0.70;0.70;;;;;;;15.12;100.00;100516.81;5071429;28;20047;-66
2022/10/25 08:47:23;;;;;;;1.83;1.08;;;;;;;15.15;98.46;100511.06;5071326;28;20040;-66
2022/10/25 08:49:59;;;;;;;0.60;0.60;;;;;;;15.14;97.92;100512.09;5071326;28;20127;-66
2022/10/25 08:52:39;;;;;;;2.05;0.70;;;;;;;15.13;97.90;100523.88;5071005;28;20086;-65
2022/10/25 08:55:15;;;;;;;3.90;0.60;;;;;;;15.19;98.05;100520.38;5071413;28;20094;-65
2022/10/25 08:57:46;;;;;;;1.27;0.68;;;;;;;15.23;97.43;100523.50;5071304;28;20036;-64
2022/10/25 09:00:19;;;;;;;1.33;0.80;;;;;;;15.26;97.41;100518.59;5071106;28;20033;-66
2022/10/25 09:02:59;;;;;;;3.40;1.00;;;;;;;15.33;97.14;100522.13;5071253;28;20029;-66
2022/10/25 09:06:03;;;;;;;1.85;0.63;;;;;;;15.38;96.90;100516.16;5071170;28;20036;-65
2022/10/25 09:08:57;;;;;;;3.90;2.15;;;;;;;15.46;96.45;100527.56;5072904;28;20124;-66
2022/10/25 09:11:30;;;;;;;1.33;0.93;;;;;;;15.56;95.79;100526.38;5074500;28;20032;-66
2022/10/25 09:14:04;;;;;;;0.77;0.75;;;;;;;15.60;95.73;100530.31;5075104;28;20040;-64
2022/10/25 09:16:46;;;;;;;3.88;0.73;;;;;;;15.65;95.95;100533.28;5074783;28;20044;-66
2022/10/25 09:19:19;;;;;;;2.63;0.63;;;;;;;15.68;96.40;100536.38;5074871;28;20028;-65
2022/10/25 09:22:08;;;;;;;1.48;0.70;;;;;;;15.71;97.80;100541.38;5074354;28;20036;-66
2022/10/25 09:24:47;;;;;;;1.10;0.77;;;;;;;15.84;97.88;100542.41;5074641;28;20056;-64
2022/10/25 09:27:18;;;;;;;3.80;0.95;;;;;;;15.87;98.00;100539.34;5074513;28;20128;-66
2022/10/25 09:29:49;;;;;;;1.25;0.90;;;;;;;15.98;93.13;100536.94;5074650;28;20448;-65
2022/10/25 09:32:22;;;;;;;1.08;0.30;;;;;;;16.11;91.66;100535.31;5074198;28;20043;-66
2022/10/25 09:34:49;;;;;;;1.98;0.80;;;;;;;16.14;93.87;100541.09;5074724;28;20071;-65
2022/10/25 09:37:25;;;;;;;1.42;0.82;;;;;;;16.18;92.77;100539.66;5074367;28;20496;-65
2022/10/25 09:39:55;;;;;;;2.28;0.90;;;;;;;16.15;92.93;100541.91;5074403;28;20081;-65
2022/10/25 09:42:45;;;;;;;1.95;0.40;;;;;;;16.21;93.87;100546.50;5074082;28;20605;-66
2022/10/25 09:45:20;;;;;;;1.85;0.75;;;;;;;16.21;94.06;100543.81;5074253;28;20048;-66
2022/10/25 09:48:15;;;;;;;0.85;0.60;;;;;;;16.20;94.70;100542.16;5074267;28;20043;-66
2022/10/25 09:50:52;;;;;;;0.73;0.52;;;;;;;16.20;94.00;100544.84;5073808;28;20390;-65
2022/10/25 09:53:18;;;;;;;2.13;0.80;;;;;;;16.20;94.22;100539.47;5074405;28;20433;-64
2022/10/25 09:55:52;;;;;;;3.97;0.52;;;;;;;16.20;91.84;100542.16;5074128;28;20044;-66
2022/10/25 09:58:25;;;;;;;1.00;0.50;;;;;;;16.20;92.89;100547.53;5074017;28;20055;-64
2022/10/25 10:00:54;;;;;;;2.28;0.77;;;;;;;16.19;93.65;100543.19;5073745;28;20048;-66
2022/10/25 10:03:21;;;;;;;0.25;0.25;;;;;;;16.17;94.42;100540.72;5073982;28;20048;-65
2022/10/25 10:05:56;;;;;;;0.40;0.35;;;;;;;16.16;94.61;100546.25;5073791;28;20481;-66
2022/10/25 10:08:23;;;;;;;1.23;0.50;;;;;;;16.17;95.63;100543.41;5073981;28;20342;-66
2022/10/25 10:10:49;;;;;;;0.70;0.60;;;;;;;16.18;95.12;100541.53;5073633;28;20028;-66
2022/10/25 10:13:24;;;;;;;0.73;0.60;;;;;;;16.20;94.54;100542.97;5073871;28;20470;-66
2022/10/25 10:15:56;;;;;;;1.48;0.65;;;;;;;16.18;93.76;100538.84;5073738;28;20119;-66
2022/10/25 10:18:32;;;;;;;2.17;0.50;;;;;;;16.23;96.87;100541.72;5073691;28;20051;-65
2022/10/25 10:21:14;;;;;;;0.73;0.52;;;;;;;16.30;92.45;100537.22;5073284;28;20098;-65
2022/10/25 10:23:49;;;;;;;0.70;0.47;;;;;;;16.36;92.91;100535.56;5073685;28;20121;-65
2022/10/25 10:26:34;;;;;;;1.45;0.70;;;;;;;16.47;93.38;100541.16;5073360;28;20033;-65
2022/10/25 10:29:16;;;;;;;5.75;0.95;;;;;;;16.62;92.48;100538.28;5073578;28;20036;-66
2022/10/25 10:31:45;;;;;;;1.60;0.57;;;;;;;16.97;89.81;100535.44;5073055;28;20040;-65
2022/10/25 10:34:43;;;;;;;1.02;0.60;;;;;;;17.29;89.58;100541.81;5055984;28;20020;-61
2022/10/25 10:37:13;;;;;;;2.03;0.70;;;;;;;17.49;86.59;100525.63;5073312;28;20036;-62
2022/10/25 10:39:52;;;;;;;1.88;0.57;;;;;;;17.80;86.68;100527.59;5073330;28;20064;-64
2022/10/25 10:42:20;;;;;;;1.27;0.45;;;;;;;17.89;86.55;100520.94;5072811;28;20033;-62
2022/10/25 10:44:59;;;;;;;1.30;0.65;;;;;;;18.04;84.41;100524.16;5073076;28;20535;-63
2022/10/25 10:47:29;;;;;;;0.43;0.38;;;;;;;18.02;79.92;100522.75;5073129;28;20481;-64
2022/10/25 10:49:55;;;;;;;3.38;0.82;;;;;;;18.07;82.22;100520.22;5072974;28;20485;-64
2022/10/25 10:52:38;;;;;;;3.42;0.80;;;;;;;18.10;79.87;100522.47;5070352;28;20040;-62
2022/10/25 10:55:04;;;;;;;1.48;0.52;;;;;;;18.10;81.82;100515.22;5063514;28;20067;-61
2022/10/25 10:57:34;;;;;;;1.30;0.63;;;;;;;18.10;81.15;100519.78;5058126;28;20122;-62
2022/10/25 11:00:01;;;;;;;0.52;0.43;;;;;;;18.09;80.16;100504.66;5052727;28;20041;-65
2022/10/25 11:02:38;;;;;;;1.70;0.73;;;;;;;17.99;81.62;100510.50;5052695;28;20036;-62
2022/10/25 11:05:17;;;;;;;1.63;0.50;;;;;;;18.02;79.27;100510.09;5052904;28;20037;-64
2022/10/25 11:07:42;;;;;;;1.23;0.55;;;;;;;18.11;81.07;100514.19;5052808;28;20086;-61
2022/10/25 11:10:13;;;;;;;1.17;0.68;;;;;;;18.07;79.34;100509.44;5052454;28;20538;-62
2022/10/25 11:12:39;;;;;;;1.05;0.30;;;;;;;18.02;78.34;100509.28;5052534;28;20044;-64
2022/10/25 11:15:12;;;;;;;1.02;0.45;;;;;;;18.18;79.36;100506.88;5052614;28;20040;-61
2022/10/25 11:17:54;;;;;;;1.75;0.73;;;;;;;18.41;78.41;100509.03;5052551;28;20033;-63
2022/10/25 11:20:25;;;;;;;2.80;1.52;;;;;;;18.37;78.54;100512.34;5052261;28;20037;-65
2022/10/25 11:23:11;;;;;;;1.88;1.00;;;;;;;18.30;78.44;100511.59;5052316;28;20058;-63
2022/10/25 11:25:49;;;;;;;0.63;0.52;;;;;;;18.34;80.71;100510.13;5052322;28;20471;-63
2022/10/25 11:28:20;;;;;;;0.88;0.50;;;;;;;18.35;81.05;100512.59;5052538;28;20033;-63
2022/10/25 11:31:16;;;;;;;1.38;0.57;;;;;;;18.30;82.15;100515.09;5051322;28;20048;-65
2022/10/25 11:33:44;;;;;;;1.38;0.75;;;;;;;18.27;80.90;100517.44;5052353;28;20490;-64
2022/10/25 11:36:48;;;;;;;0.57;0.57;;;;;;;18.18;80.88;100520.34;5052178;28;20462;-65
2022/10/25 11:39:30;;;;;;;0.57;0.55;;;;;;;18.26;81.76;100521.16;5052276;28;20057;-62
2022/10/25 11:42:35;;;;;;;1.50;0.80;;;;;;;18.56;80.99;100511.41;5051871;28;20043;-63
2022/10/25 11:45:12;;;;;;;3.58;0.90;;;;;;;18.93;78.66;100514.25;5051752;28;20055;-61
2022/10/25 11:47:49;;;;;;;;;;;;;;;19.24;76.06;100508.75;5052586;28;20029;-64
2022/10/25 11:50:41;;;;;;;;;;;;;;;20.30;74.21;100507.44;5052176;28;19916;-64
2022/10/25 11:53:14;;;;;;;0.82;0.38;;;;;;;21.07;66.72;100512.88;5028511;28;19928;-62
2022/10/25 11:55:54;;;;;;;0.85;0.50;;;;;;;21.46;65.03;100509.72;5051737;28;20035;-65
2022/10/25 11:58:44;;;;;;;3.60;0.73;;;;;;;20.77;65.40;100504.84;5052009;28;20075;-62
2022/10/25 12:02:00;;;;;;;1.58;0.50;;;;;;;20.81;64.57;100505.22;5051613;28;20036;-62
2022/10/25 12:04:52;;;;;;;1.08;0.55;;;;;;;21.60;64.23;100489.41;5028651;28;20045;-64
2022/10/25 12:07:41;;;;;;;0.95;0.52;;;;;;;21.17;63.92;100495.22;5051814;28;20040;-64
2022/10/25 12:10:46;;;;;;;2.45;0.77;;;;;;;21.19;62.22;100499.34;5051569;28;20052;-62
2022/10/25 12:13:15;;;;;;;2.25;0.85;;;;;;;21.62;61.54;100490.78;5051706;28;20082;-65
2022/10/25 12:15:45;;;;;;;1.70;0.52;;;;;;;21.92;60.44;100492.47;5051636;28;20489;-65
2022/10/25 12:18:18;;;;;;;1.33;0.80;;;;;;;22.24;60.26;100483.88;5051673;28;20029;-65
2022/10/25 12:20:46;;;;;;;1.00;0.50;;;;;;;22.43;56.80;100479.84;5051166;28;20048;-65
2022/10/25 12:23:21;;;;;;;1.55;0.60;;;;;;;22.74;55.48;100473.03;5051615;28;20041;-64
2022/10/25 12:25:51;;;;;;;2.80;0.90;;;;;;;22.76;57.52;100476.34;5051053;28;20161;-65
2022/10/25 12:28:30;;;;;;;1.15;0.73;;;;;;;22.70;55.39;100482.75;5051603;28;20059;-64
2022/10/25 12:31:00;;;;;;;1.50;0.77;;;;;;;23.27;54.92;100471.63;5051118;28;20112;-62
2022/10/25 12:33:42;;;;;;;1.27;0.68;;;;;;;23.85;51.62;100467.47;5051605;28;20445;-62
2022/10/25 12:36:44;;;;;;;1.60;0.90;;;;;;;24.01;50.79;100469.31;5051259;28;20040;-64
2022/10/25 12:39:21;;;;;;;3.35;0.73;;;;;;;23.74;50.69;100460.31;5059351;28;20115;-64
2022/10/25 12:41:54;;;;;;;2.65;0.60;;;;;;;23.83;51.24;100458.75;5051065;28;20041;-65
2022/10/25 12:44:50;;;;;;;5.15;1.15;;;;;;;23.67;50.87;100465.09;5054687;28;20098;-63
2022/10/25 12:47:30;;;;;;;1.73;0.63;;;;;;;23.42;51.81;100462.88;5055347;28;20051;-62
2022/10/25 12:50:08;;;;;;;2.72;0.98;;;;;;;23.39;51.38;100458.75;5055264;28;20051;-62
2022/10/25 12:52:37;;;;;;;2.47;0.95;;;;;;;22.97;51.97;100453.03;5056123;28;20037;-62
2022/10/25 12:55:27;;;;;;;6.03;0.90;;;;;;;22.42;53.78;100443.75;5075257;28;20067;-63
2022/10/25 12:58:07;;;;;;;3.97;0.80;;;;;;;22.38;54.44;100447.22;5074812;28;20028;-64
2022/10/25 13:00:53;;;;;;;1.20;0.80;;;;;;;22.12;56.10;100445.97;5074926;28;20048;-61
2022/10/25 13:03:40;;;;;;;3.58;0.80;;;;;;;22.01;56.29;100436.78;5073236;28;20032;-63
2022/10/25 13:06:36;;;;;;;3.38;0.98;;;;;;;21.73;57.18;100445.75;5074951;28;20062;-61
2022/10/25 13:09:07;;;;;;;2.20;0.75;;;;;;;21.28;57.17;100430.22;5074843;28;20060;-62
2022/10/25 13:11:39;;;;;;;3.80;1.27;;;;;;;21.27;59.73;100433.13;5074640;28;20044;-62
2022/10/25 13:14:17;;;;;;;2.65;0.70;;;;;;;21.38;60.81;100443.13;5074475;28;20033;-63
2022/10/25 13:16:43;;;;;;;3.63;1.23;;;;;;;21.33;63.44;100438.47;5074750;28;20036;-63
2022/10/25 13:19:28;;;;;;;2.40;0.75;;;;;;;21.16;61.37;100423.97;5074787;28;20037;-64
2022/10/25 13:21:53;;;;;;;3.03;1.05;;;;;;;21.03;60.47;100438.59;5074236;28;20064;-64
2022/10/25 13:24:42;;;;;;;3.75;1.17;;;;;;;20.77;60.21;100441.78;5074666;28;20075;-65
2022/10/25 13:27:10;;;;;;;1.83;0.85;;;;;;;20.91;59.73;100443.19;5074657;28;20036;-66
2022/10/25 13:30:01;;;;;;;3.08;0.70;;;;;;;20.82;61.51;100440.00;5074572;28;20047;-65
2022/10/25 13:32:32;;;;;;;3.90;0.90;;;;;;;20.57;59.96;100434.81;5074354;28;20098;-65
2022/10/25 13:34:57;;;;;;;2.20;0.80;;;;;;;20.51;61.65;100424.94;5074486;28;20032;-65
2022/10/25 13:37:29;;;;;;;5.05;1.30;;;;;;;20.37;62.92;100425.38;5074416;28;20044;-66
2022/10/25 13:39:57;;;;;;;3.08;0.98;;;;;;;20.47;63.32;100420.22;5074244;28;20044;-66
2022/10/25 13:42:31;;;;;;;2.92;1.27;;;;;;;20.43;62.91;100424.44;5074306;28;20119;-66
2022/10/25 13:45:05;;;;;;;1.98;0.90;;;;;;;20.39;62.25;100423.25;5074375;28;20511;-66
2022/10/25 13:47:41;;;;;;;1.70;1.02;;;;;;;20.40;62.09;100419.47;5073041;28;20089;-66
2022/10/25 13:50:25;;;;;;;0.70;0.57;;;;;;;20.37;64.25;100415.38;5074141;28;20421;-66
2022/10/25 13:53:18;;;;;;;1.02;0.73;;;;;;;20.37;64.57;100414.56;5074096;28;20041;-65
2022/10/25 13:55:46;;;;;;;3.78;1.13;;;;;;;20.18;64.75;100417.34;5054574;28;20657;-64
2022/10/25 13:58:27;;;;;;;3.47;1.42;;;;;;;20.12;63.15;100420.97;5074160;28;20058;-65
2022/10/25 14:00:54;;;;;;;2.75;1.23;;;;;;;20.12;64.15;100420.97;5073623;28;20111;-63
2022/10/25 14:03:20;;;;;;;3.67;1.00;;;;;;;20.18;64.25;100419.22;5074010;28;20040;-61
2022/10/25 14:05:54;;;;;;;0.95;0.80;;;;;;;20.22;66.58;100418.53;5073882;28;20045;-61
2022/10/25 14:08:28;;;;;;;1.50;0.95;;;;;;;20.10;63.85;100409.56;5073952;28;20492;-64
2022/10/25 14:10:54;;;;;;;1.85;0.90;;;;;;;20.17;63.74;100404.88;5073476;28;20062;-64
2022/10/25 14:13:47;;;;;;;7.22;1.20;;;;;;;20.31;65.57;100400.06;5073869;28;20032;-63
2022/10/25 14:16:30;;;;;;;2.72;0.80;;;;;;;20.37;63.52;100395.63;5073842;28;20028;-62
2022/10/25 14:19:13;;;;;;;1.13;0.75;;;;;;;20.38;62.98;100399.97;5073831;28;20073;-63
2022/10/25 14:21:45;;;;;;;4.78;1.48;;;;;;;20.28;65.70;100398.66;5073188;28;20060;-65
2022/10/25 14:24:14;;;;;;;2.58;1.20;;;;;;;20.23;64.66;100403.13;5073785;28;20455;-65
2022/10/25 14:26:57;;;;;;;2.53;1.20;;;;;;;19.99;64.68;100404.94;5073469;28;20024;-63
2022/10/25 14:29:25;;;;;;;2.53;1.20;;;;;;;20.01;66.94;100397.41;5073563;28;20097;-62
2022/10/25 14:31:51;;;;;;;4.93;1.30;;;;;;;19.95;65.11;100398.34;5073085;28;20037;-64
2022/10/25 14:34:20;;;;;;;3.83;1.40;;;;;;;19.91;66.12;100402.59;5073421;28;20142;-64
2022/10/25 14:36:54;;;;;;;2.08;1.10;;;;;;;19.89;66.14;100399.28;5073254;28;20052;-64
2022/10/25 14:39:24;;;;;;;2.83;1.10;;;;;;;19.78;65.76;100392.78;5073432;28;20036;-61
2022/10/25 14:42:18;;;;;;;2.78;1.23;;;;;;;19.66;65.92;100391.91;5072594;28;20029;-62
2022/10/25 14:44:47;;;;;;;3.35;1.80;;;;;;;19.56;64.96;100388.88;5068427;28;20055;-61
2022/10/25 14:47:29;;;;;;;1.67;0.82;;;;;;;19.48;65.29;100388.16;5073302;28;20049;-61
2022/10/25 14:49:58;;;;;;;2.10;0.90;;;;;;;19.51;65.29;100378.78;5072931;28;20127;-64
2022/10/25 14:52:26;;;;;;;2.58;1.10;;;;;;;19.48;64.82;100379.22;5072820;28;20040;-61
2022/10/25 14:54:56;;;;;;;4.82;1.27;;;;;;;19.44;66.89;100373.47;5072896;28;20474;-61
2022/10/25 14:57:25;;;;;;;4.40;1.30;;;;;;;19.43;67.47;100376.38;5072933;28;20036;-61
2022/10/25 14:59:56;;;;;;;4.10;1.10;;;;;;;19.32;68.00;100371.78;5072874;28;20042;-60
2022/10/25 15:02:24;;;;;;;5.03;1.08;;;;;;;19.37;67.55;100369.22;5072758;28;20028;-61
2022/10/25 15:04:53;;;;;;;3.17;1.05;;;;;;;19.31;69.98;100367.44;5072601;28;20036;-63
2022/10/25 15:07:27;;;;;;;2.85;1.15;;;;;;;19.29;70.18;100364.94;5072030;28;20047;-60
2022/10/25 15:09:55;;;;;;;4.13;1.30;;;;;;;19.23;71.03;100361.28;5072680;28;20043;-60
2022/10/25 15:12:31;;;;;;;3.83;1.40;;;;;;;19.15;70.59;100366.97;5071077;28;20036;-61
2022/10/25 15:15:18;;;;;;;3.05;1.25;;;;;;;19.11;71.05;100365.81;5072651;28;20063;-60
2022/10/25 15:17:51;;;;;;;2.65;1.20;;;;;;;19.07;71.75;100369.16;5072381;28;20075;-60
2022/10/25 15:20:16;;;;;;;1.63;1.00;;;;;;;18.88;72.63;100365.66;5072206;28;20041;-61
2022/10/25 15:22:47;;;;;;;2.72;1.58;;;;;;;18.84;73.68;100369.84;5072417;28;20032;-63
2022/10/25 15:25:22;;;;;;;2.08;1.35;;;;;;;18.79;74.77;100370.53;5072347;28;20043;-62
2022/10/25 15:27:55;;;;;;;6.32;2.33;;;;;;;18.69;75.76;100379.13;5072304;28;20085;-61
2022/10/25 15:30:48;;;;;;;9.55;3.60;;;;;;;18.61;76.43;100368.59;5071944;28;20477;-63
2022/10/25 15:33:29;;;;;;;9.13;1.88;;;;;;;18.53;77.76;100373.47;5072245;28;20473;-61
2022/10/25 15:35:57;;;;;;;6.88;2.40;;;;;;;18.40;78.58;100374.41;5072140;28;20028;-64
2022/10/25 15:38:29;;;;;;;11.88;3.30;;;;;;;18.33;79.58;100370.94;5072135;28;20138;-63
2022/10/25 15:40:54;;;;;;;8.32;2.92;;;;;;;18.21;81.98;100368.13;5071859;28;20042;-62
2022/10/25 15:43:20;;;;;;;13.43;4.32;;;;;;;18.07;83.78;100362.03;5072145;28;20115;-62
2022/10/25 15:45:45;;;;;;;4.60;1.88;;;;;;;17.92;85.99;100358.81;5072206;28;20064;-63
2022/10/25 15:48:16;;;;;;;4.72;1.85;;;;;;;17.77;87.54;100363.69;5072070;28;20032;-63
2022/10/25 15:50:48;;;;;;;5.82;2.00;;;;;;;17.56;89.35;100360.28;5071671;28;20497;-62
2022/10/25 15:53:13;;;;;;;9.00;2.70;;;;;;;17.47;89.91;100360.72;5071782;28;20436;-62
2022/10/25 15:55:38;;;;;;;5.15;1.90;;;;;;;17.32;90.29;100356.44;5071968;28;20028;-62
2022/10/25 15:58:04;;;;;;;5.32;1.52;;;;;;;17.17;91.70;100355.09;5071976;28;20528;-59
2022/10/25 16:00:31;;;;;;;3.10;1.67;;;;;;;17.14;90.86;100350.94;5071663;28;20036;-60
2022/10/25 16:02:57;;;;;;;9.30;2.55;;;;;;;17.14;90.65;100350.13;5070538;28;20402;-63
2022/10/25 16:05:26;;;;;;;4.78;2.13;;;;;;;17.03;91.19;100348.94;5071780;28;20041;-60
2022/10/25 16:07:52;;;;;;;2.50;1.38;;;;;;;16.73;94.18;100354.81;5071862;28;20417;-58